sensor_id;sensor_type;location;lat;lon;timestamp;pressure;altitude;pressure_sealevel;temperature;humidity
60059;BME280;45932;50.658;3.022;2023-01-16T00:01:40;99194.25;;;6.32;71.12
60059;BME280;45932;50.658;3.022;2023-01-16T00:04:05;99200.38;;;6.37;71.16
60059;BME280;45932;50.658;3.022;2023-01-16T00:06:30;99242.13;;;6.59;71.09
60059;BME280;45932;50.658;3.022;2023-01-16T00:08:56;99258.69;;;6.70;70.96
60059;BME280;45932;50.658;3.022;2023-01-16T00:11:21;99189.94;;;6.31;70.78
60059;BME280;45932;50.658;3.022;2023-01-16T00:13:46;99225.56;;;6.62;70.87
60059;BME280;45932;50.658;3.022;2023-01-16T00:16:12;99236.91;;;6.65;70.57
60059;BME280;45932;50.658;3.022;2023-01-16T00:18:38;99236.00;;;6.68;70.54
60059;BME280;45932;50.658;3.022;2023-01-16T00:21:03;99219.38;;;6.72;70.69
60059;BME280;45932;50.658;3.022;2023-01-16T00:23:29;99154.97;;;6.32;70.66
60059;BME280;45932;50.658;3.022;2023-01-16T00:25:54;99175.84;;;6.49;70.72
60059;BME280;45932;50.658;3.022;2023-01-16T00:28:19;99175.75;;;6.63;70.75
60059;BME280;45932;50.658;3.022;2023-01-16T00:30:45;99047.09;;;5.77;70.90
60059;BME280;45932;50.658;3.022;2023-01-16T00:33:11;99146.13;;;6.55;70.99
60059;BME280;45932;50.658;3.022;2023-01-16T00:35:36;99135.66;;;6.53;70.97
60059;BME280;45932;50.658;3.022;2023-01-16T00:38:02;99122.56;;;6.52;70.98
60059;BME280;45932;50.658;3.022;2023-01-16T00:40:27;99125.09;;;6.64;71.23
60059;BME280;45932;50.658;3.022;2023-01-16T00:42:53;99087.66;;;6.47;71.05
60059;BME280;45932;50.658;3.022;2023-01-16T00:45:18;99098.03;;;6.65;71.30
60059;BME280;45932;50.658;3.022;2023-01-16T00:47:44;99047.59;;;6.37;71.07
60059;BME280;45932;50.658;3.022;2023-01-16T00:50:10;99064.03;;;6.56;71.18
60059;BME280;45932;50.658;3.022;2023-01-16T00:52:35;99059.59;;;6.64;71.17
60059;BME280;45932;50.658;3.022;2023-01-16T00:55:00;99011.75;;;6.40;71.27
60059;BME280;45932;50.658;3.022;2023-01-16T00:57:26;99001.31;;;6.37;71.39
60059;BME280;45932;50.658;3.022;2023-01-16T00:59:51;99015.97;;;6.59;71.59
60059;BME280;45932;50.658;3.022;2023-01-16T01:02:17;99016.81;;;6.62;71.11
60059;BME280;45932;50.658;3.022;2023-01-16T01:04:42;98992.34;;;6.63;71.78
60059;BME280;45932;50.658;3.022;2023-01-16T01:07:07;98941.91;;;6.39;71.59
60059;BME280;45932;50.658;3.022;2023-01-16T01:09:33;98966.16;;;6.63;71.69
60059;BME280;45932;50.658;3.022;2023-01-16T01:11:59;98925.22;;;6.54;71.96
60059;BME280;45932;50.658;3.022;2023-01-16T01:14:25;98950.19;;;6.83;71.66
60059;BME280;45932;50.658;3.022;2023-01-16T01:16:50;98860.72;;;6.39;71.90
60059;BME280;45932;50.658;3.022;2023-01-16T01:19:16;98844.16;;;6.42;72.07
60059;BME280;45932;50.658;3.022;2023-01-16T01:21:41;98933.44;;;6.98;71.76
60059;BME280;45932;50.658;3.022;2023-01-16T01:24:07;98897.81;;;6.82;71.30
60059;BME280;45932;50.658;3.022;2023-01-16T01:26:32;98895.13;;;6.86;71.48
60059;BME280;45932;50.658;3.022;2023-01-16T01:28:58;98849.03;;;6.70;71.43
60059;BME280;45932;50.658;3.022;2023-01-16T01:31:23;98807.28;;;6.56;72.01
60059;BME280;45932;50.658;3.022;2023-01-16T01:33:48;98874.84;;;6.99;71.96
60059;BME280;45932;50.658;3.022;2023-01-16T01:36:14;98874.78;;;7.07;71.77
60059;BME280;45932;50.658;3.022;2023-01-16T01:38:39;98860.78;;;7.07;71.90
60059;BME280;45932;50.658;3.022;2023-01-16T01:41:05;98789.56;;;6.77;72.32
60059;BME280;45932;50.658;3.022;2023-01-16T01:43:46;98844.03;;;7.17;71.92
60059;BME280;45932;50.658;3.022;2023-01-16T01:48:45;98726.91;;;6.60;71.82
60059;BME280;45932;50.658;3.022;2023-01-16T01:51:17;98816.06;;;7.17;71.93
60059;BME280;45932;50.658;3.022;2023-01-16T01:53:52;98788.22;;;7.09;71.75
60059;BME280;45932;50.658;3.022;2023-01-16T01:56:26;98733.50;;;6.87;72.17
60059;BME280;45932;50.658;3.022;2023-01-16T01:58:57;98759.25;;;7.18;72.44
60059;BME280;45932;50.658;3.022;2023-01-16T02:01:24;98745.31;;;7.14;72.53
60059;BME280;45932;50.658;3.022;2023-01-16T02:03:58;98741.59;;;7.26;72.79
60059;BME280;45932;50.658;3.022;2023-01-16T02:06:31;98683.59;;;6.93;72.83
60059;BME280;45932;50.658;3.022;2023-01-16T02:08:59;98678.19;;;7.05;72.99
60059;BME280;45932;50.658;3.022;2023-01-16T02:11:38;98663.22;;;7.11;73.33
60059;BME280;45932;50.658;3.022;2023-01-16T02:14:08;98666.59;;;7.19;73.77
60059;BME280;45932;50.658;3.022;2023-01-16T02:16:34;98644.66;;;7.23;74.09
60059;BME280;45932;50.658;3.022;2023-01-16T02:22:29;98596.69;;;7.18;74.19
60059;BME280;45932;50.658;3.022;2023-01-16T02:35:59;98438.81;;;7.00;75.19
60059;BME280;45932;50.658;3.022;2023-01-16T02:38:58;98404.03;;;6.94;75.10
60059;BME280;45932;50.658;3.022;2023-01-16T02:41:29;98394.97;;;7.09;75.41
60059;BME280;45932;50.658;3.022;2023-01-16T02:47:43;98341.69;;;7.07;75.61
60059;BME280;45932;50.658;3.022;2023-01-16T02:52:38;98327.38;;;7.23;76.05
60059;BME280;45932;50.658;3.022;2023-01-16T02:55:18;98293.47;;;7.14;75.85
60059;BME280;45932;50.658;3.022;2023-01-16T02:57:50;98282.69;;;7.26;75.93
60059;BME280;45932;50.658;3.022;2023-01-16T03:00:18;98252.31;;;7.19;75.80
60059;BME280;45932;50.658;3.022;2023-01-16T03:02:45;98260.81;;;7.29;75.98
60059;BME280;45932;50.658;3.022;2023-01-16T03:05:11;98245.09;;;7.27;75.98
60059;BME280;45932;50.658;3.022;2023-01-16T03:07:52;98231.97;;;7.27;75.95
60059;BME280;45932;50.658;3.022;2023-01-16T03:15:39;98199.50;;;7.33;75.76
60059;BME280;45932;50.658;3.022;2023-01-16T03:18:34;98169.75;;;7.34;76.04
60059;BME280;45932;50.658;3.022;2023-01-16T03:21:10;98138.56;;;7.23;75.94
60059;BME280;45932;50.658;3.022;2023-01-16T03:24:26;98105.38;;;7.22;76.05
60059;BME280;45932;50.658;3.022;2023-01-16T03:30:15;98069.38;;;7.29;76.86
60059;BME280;45932;50.658;3.022;2023-01-16T03:33:42;97935.09;;;6.86;77.64
60059;BME280;45932;50.658;3.022;2023-01-16T03:35:53;97878.00;;;6.67;78.11
60059;BME280;45932;50.658;3.022;2023-01-16T03:38:22;97854.13;;;6.78;78.45
60059;BME280;45932;50.658;3.022;2023-01-16T03:40:50;97901.78;;;7.21;78.44
60059;BME280;45932;50.658;3.022;2023-01-16T03:43:27;97880.34;;;7.08;78.38
60059;BME280;45932;50.658;3.022;2023-01-16T03:48:34;97847.06;;;7.10;78.46
60059;BME280;45932;50.658;3.022;2023-01-16T03:51:09;97811.44;;;7.03;78.41
60059;BME280;45932;50.658;3.022;2023-01-16T03:53:45;97857.16;;;7.22;78.13
60059;BME280;45932;50.658;3.022;2023-01-16T03:56:32;97807.41;;;7.21;78.75
60059;BME280;45932;50.658;3.022;2023-01-16T03:59:00;97783.16;;;7.14;78.58
60059;BME280;45932;50.658;3.022;2023-01-16T04:01:36;97777.41;;;7.30;78.74
60059;BME280;45932;50.658;3.022;2023-01-16T04:04:10;97723.50;;;6.94;78.19
60059;BME280;45932;50.658;3.022;2023-01-16T04:12:01;97731.06;;;7.03;77.90
60059;BME280;45932;50.658;3.022;2023-01-16T04:14:29;97737.72;;;7.14;78.06
60059;BME280;45932;50.658;3.022;2023-01-16T04:16:57;97716.25;;;7.02;77.72
60059;BME280;45932;50.658;3.022;2023-01-16T04:19:24;97735.00;;;7.17;77.75
60059;BME280;45932;50.658;3.022;2023-01-16T04:21:51;97761.03;;;7.23;77.57
60059;BME280;45932;50.658;3.022;2023-01-16T04:24:17;97731.63;;;7.13;77.82
60059;BME280;45932;50.658;3.022;2023-01-16T04:26:43;97632.88;;;6.60;77.55
60059;BME280;45932;50.658;3.022;2023-01-16T04:29:08;97690.03;;;7.02;77.65
60059;BME280;45932;50.658;3.022;2023-01-16T04:31:34;97685.84;;;6.97;77.31
60059;BME280;45932;50.658;3.022;2023-01-16T04:33:59;97683.84;;;7.05;77.61
60059;BME280;45932;50.658;3.022;2023-01-16T04:36:24;97648.94;;;6.78;77.60
60059;BME280;45932;50.658;3.022;2023-01-16T04:38:50;97597.50;;;6.75;78.21
60059;BME280;45932;50.658;3.022;2023-01-16T04:41:15;97612.81;;;6.86;78.15
60059;BME280;45932;50.658;3.022;2023-01-16T04:44:02;97610.03;;;6.92;78.34
60059;BME280;45932;50.658;3.022;2023-01-16T04:46:28;97582.91;;;6.93;78.71
60059;BME280;45932;50.658;3.022;2023-01-16T04:48:53;97435.81;;;6.53;80.26
60059;BME280;45932;50.658;3.022;2023-01-16T04:51:19;97429.09;;;6.71;80.88
60059;BME280;45932;50.658;3.022;2023-01-16T04:53:44;97442.88;;;6.77;80.54
60059;BME280;45932;50.658;3.022;2023-01-16T04:56:09;97457.94;;;6.70;79.78
60059;BME280;45932;50.658;3.022;2023-01-16T04:58:34;97428.88;;;6.52;79.43
60059;BME280;45932;50.658;3.022;2023-01-16T05:01:00;97438.81;;;6.68;78.98
60059;BME280;45932;50.658;3.022;2023-01-16T05:03:25;97417.44;;;6.55;79.57
60059;BME280;45932;50.658;3.022;2023-01-16T05:05:50;97369.84;;;6.67;80.90
60059;BME280;45932;50.658;3.022;2023-01-16T05:08:16;97394.00;;;6.76;80.34
60059;BME280;45932;50.658;3.022;2023-01-16T05:10:41;97398.91;;;6.85;80.33
60059;BME280;45932;50.658;3.022;2023-01-16T05:13:06;97354.50;;;6.58;79.90
60059;BME280;45932;50.658;3.022;2023-01-16T05:15:32;97322.22;;;6.32;79.88
60059;BME280;45932;50.658;3.022;2023-01-16T05:17:57;97314.50;;;6.29;80.01
60059;BME280;45932;50.658;3.022;2023-01-16T05:20:23;97410.25;;;6.85;80.02
60059;BME280;45932;50.658;3.022;2023-01-16T05:22:48;97345.63;;;6.37;79.65
60059;BME280;45932;50.658;3.022;2023-01-16T05:25:13;97408.69;;;6.80;79.91
60059;BME280;45932;50.658;3.022;2023-01-16T05:27:39;97379.31;;;6.71;80.12
60059;BME280;45932;50.658;3.022;2023-01-16T05:30:05;97371.03;;;6.59;79.69
60059;BME280;45932;50.658;3.022;2023-01-16T05:32:30;97366.09;;;6.75;79.97
60059;BME280;45932;50.658;3.022;2023-01-16T05:34:55;97341.56;;;6.53;79.80
60059;BME280;45932;50.658;3.022;2023-01-16T05:37:21;97357.03;;;6.60;79.69
60059;BME280;45932;50.658;3.022;2023-01-16T05:39:46;97353.41;;;6.64;79.82
60059;BME280;45932;50.658;3.022;2023-01-16T05:42:11;97375.66;;;6.76;79.27
60059;BME280;45932;50.658;3.022;2023-01-16T05:44:49;97362.56;;;6.76;79.49
60059;BME280;45932;50.658;3.022;2023-01-16T05:47:15;97361.09;;;6.68;79.82
60059;BME280;45932;50.658;3.022;2023-01-16T05:49:41;97361.53;;;6.80;79.70
60059;BME280;45932;50.658;3.022;2023-01-16T05:52:06;97335.63;;;6.72;79.74
60059;BME280;45932;50.658;3.022;2023-01-16T05:54:31;97331.13;;;6.76;79.88
60059;BME280;45932;50.658;3.022;2023-01-16T05:56:57;97325.91;;;6.76;79.49
60059;BME280;45932;50.658;3.022;2023-01-16T05:59:22;97270.00;;;6.29;79.47
60059;BME280;45932;50.658;3.022;2023-01-16T06:01:47;97338.09;;;6.77;79.35
60059;BME280;45932;50.658;3.022;2023-01-16T06:04:13;97305.63;;;6.57;79.61
60059;BME280;45932;50.658;3.022;2023-01-16T06:06:38;97305.41;;;6.63;79.67
60059;BME280;45932;50.658;3.022;2023-01-16T06:09:03;97303.47;;;6.68;79.58
60059;BME280;45932;50.658;3.022;2023-01-16T06:11:29;97297.03;;;6.53;79.44
60059;BME280;45932;50.658;3.022;2023-01-16T06:13:57;97352.66;;;6.84;79.52
60059;BME280;45932;50.658;3.022;2023-01-16T06:16:28;97350.06;;;6.84;79.59
60059;BME280;45932;50.658;3.022;2023-01-16T06:18:53;97293.13;;;6.65;79.57
60059;BME280;45932;50.658;3.022;2023-01-16T06:21:19;97242.69;;;6.36;79.50
60059;BME280;45932;50.658;3.022;2023-01-16T06:23:44;97271.53;;;6.59;79.62
60059;BME280;45932;50.658;3.022;2023-01-16T06:26:09;97287.44;;;6.76;79.70
60059;BME280;45932;50.658;3.022;2023-01-16T06:28:36;97280.56;;;6.73;79.51
60059;BME280;45932;50.658;3.022;2023-01-16T06:31:02;97245.50;;;6.54;79.59
60059;BME280;45932;50.658;3.022;2023-01-16T06:33:28;97209.56;;;6.35;79.45
60059;BME280;45932;50.658;3.022;2023-01-16T06:35:53;97272.78;;;6.72;79.44
60059;BME280;45932;50.658;3.022;2023-01-16T06:38:18;97271.81;;;6.75;79.64
60059;BME280;45932;50.658;3.022;2023-01-16T06:40:44;97295.94;;;6.83;79.57
60059;BME280;45932;50.658;3.022;2023-01-16T06:43:10;97275.31;;;6.73;79.43
60059;BME280;45932;50.658;3.022;2023-01-16T06:45:36;97245.41;;;6.57;79.62
60059;BME280;45932;50.658;3.022;2023-01-16T06:48:01;97300.72;;;6.95;79.87
60059;BME280;45932;50.658;3.022;2023-01-16T06:50:26;97241.66;;;6.64;79.18
60059;BME280;45932;50.658;3.022;2023-01-16T06:52:52;97276.56;;;6.87;79.45
60059;BME280;45932;50.658;3.022;2023-01-16T06:55:17;97296.22;;;6.99;79.10
60059;BME280;45932;50.658;3.022;2023-01-16T06:57:42;97299.56;;;7.02;79.39
60059;BME280;45932;50.658;3.022;2023-01-16T07:00:08;97295.13;;;7.04;79.25
60059;BME280;45932;50.658;3.022;2023-01-16T07:02:34;97263.91;;;6.98;79.05
60059;BME280;45932;50.658;3.022;2023-01-16T07:04:59;97248.31;;;6.95;79.39
60059;BME280;45932;50.658;3.022;2023-01-16T07:07:24;97279.31;;;7.06;79.33
60059;BME280;45932;50.658;3.022;2023-01-16T07:09:50;97251.97;;;6.91;79.19
60059;BME280;45932;50.658;3.022;2023-01-16T07:12:15;97259.13;;;6.86;78.88
60059;BME280;45932;50.658;3.022;2023-01-16T07:14:40;97293.34;;;7.05;79.01
60059;BME280;45932;50.658;3.022;2023-01-16T07:17:24;97240.38;;;6.75;79.11
60059;BME280;45932;50.658;3.022;2023-01-16T07:20:10;97263.59;;;6.84;78.67
60059;BME280;45932;50.658;3.022;2023-01-16T07:22:54;97267.00;;;6.86;78.65
60059;BME280;45932;50.658;3.022;2023-01-16T07:25:30;97289.19;;;6.99;78.47
60059;BME280;45932;50.658;3.022;2023-01-16T07:27:56;97309.69;;;7.12;78.57
60059;BME280;45932;50.658;3.022;2023-01-16T07:30:22;97295.22;;;7.01;78.58
60059;BME280;45932;50.658;3.022;2023-01-16T07:32:48;97222.41;;;6.65;78.68
60059;BME280;45932;50.658;3.022;2023-01-16T07:35:13;97275.56;;;6.91;78.47
60059;BME280;45932;50.658;3.022;2023-01-16T07:37:39;97270.66;;;6.82;78.39
60059;BME280;45932;50.658;3.022;2023-01-16T07:40:05;97308.03;;;7.09;78.10
60059;BME280;45932;50.658;3.022;2023-01-16T07:42:30;97311.63;;;7.07;78.04
60059;BME280;45932;50.658;3.022;2023-01-16T07:44:56;97329.44;;;7.20;78.07
60059;BME280;45932;50.658;3.022;2023-01-16T07:47:21;97305.72;;;7.01;77.96
60059;BME280;45932;50.658;3.022;2023-01-16T07:49:46;97250.47;;;6.62;77.61
60059;BME280;45932;50.658;3.022;2023-01-16T07:52:12;97275.06;;;6.81;77.49
60059;BME280;45932;50.658;3.022;2023-01-16T07:54:37;97312.31;;;7.12;77.89
60059;BME280;45932;50.658;3.022;2023-01-16T07:57:05;97245.41;;;6.57;78.15
60059;BME280;45932;50.658;3.022;2023-01-16T07:59:31;97251.66;;;6.53;77.55
60059;BME280;45932;50.658;3.022;2023-01-16T08:01:56;97226.19;;;6.34;77.23
60059;BME280;45932;50.658;3.022;2023-01-16T08:04:21;97318.00;;;6.99;76.95
60059;BME280;45932;50.658;3.022;2023-01-16T08:06:47;97299.47;;;6.82;77.17
60059;BME280;45932;50.658;3.022;2023-01-16T08:09:12;97293.38;;;6.81;77.18
60059;BME280;45932;50.658;3.022;2023-01-16T08:11:38;97299.06;;;6.93;77.09
60059;BME280;45932;50.658;3.022;2023-01-16T08:14:05;97301.06;;;6.86;77.29
60059;BME280;45932;50.658;3.022;2023-01-16T08:16:32;97305.38;;;6.87;77.26
60059;BME280;45932;50.658;3.022;2023-01-16T08:18:57;97223.69;;;6.31;76.84
60059;BME280;45932;50.658;3.022;2023-01-16T08:21:23;97344.09;;;7.02;76.95
60059;BME280;45932;50.658;3.022;2023-01-16T08:23:48;97238.13;;;6.41;76.75
60059;BME280;45932;50.658;3.022;2023-01-16T08:26:14;97334.84;;;7.16;77.16
60059;BME280;45932;50.658;3.022;2023-01-16T08:28:39;97320.59;;;7.01;76.57
60059;BME280;45932;50.658;3.022;2023-01-16T08:31:10;97195.00;;;6.28;77.07
60059;BME280;45932;50.658;3.022;2023-01-16T08:33:38;97338.63;;;7.09;77.05
60059;BME280;45932;50.658;3.022;2023-01-16T08:36:05;97289.50;;;6.92;77.31
60059;BME280;45932;50.658;3.022;2023-01-16T08:38:31;97294.91;;;6.87;76.92
60059;BME280;45932;50.658;3.022;2023-01-16T08:40:57;97267.28;;;6.78;76.88
60059;BME280;45932;50.658;3.022;2023-01-16T08:43:22;97283.41;;;6.91;76.76
60059;BME280;45932;50.658;3.022;2023-01-16T08:46:27;97327.66;;;7.21;77.08
60059;BME280;45932;50.658;3.022;2023-01-16T08:49:13;97311.03;;;7.22;77.11
60059;BME280;45932;50.658;3.022;2023-01-16T08:51:58;97257.06;;;6.94;77.20
60059;BME280;45932;50.658;3.022;2023-01-16T08:54:25;97271.56;;;7.03;77.55
60059;BME280;45932;50.658;3.022;2023-01-16T08:56:50;97282.06;;;7.03;76.90
60059;BME280;45932;50.658;3.022;2023-01-16T08:59:16;97272.50;;;7.02;76.93
60059;BME280;45932;50.658;3.022;2023-01-16T09:01:41;97298.06;;;7.19;77.19
60059;BME280;45932;50.658;3.022;2023-01-16T09:04:07;97318.78;;;7.25;76.99
60059;BME280;45932;50.658;3.022;2023-01-16T09:06:33;97267.88;;;7.09;77.26
60059;BME280;45932;50.658;3.022;2023-01-16T09:09:03;97273.75;;;7.15;77.07
60059;BME280;45932;50.658;3.022;2023-01-16T09:11:28;97268.28;;;7.20;77.19
60059;BME280;45932;50.658;3.022;2023-01-16T09:14:12;97293.88;;;7.35;77.33
60059;BME280;45932;50.658;3.022;2023-01-16T09:16:37;97257.78;;;7.20;77.20
60059;BME280;45932;50.658;3.022;2023-01-16T09:19:03;97230.53;;;7.03;77.19
60059;BME280;45932;50.658;3.022;2023-01-16T09:21:28;97249.16;;;7.18;77.54
60059;BME280;45932;50.658;3.022;2023-01-16T09:23:53;97271.28;;;7.33;77.69
60059;BME280;45932;50.658;3.022;2023-01-16T09:26:19;97245.38;;;7.25;77.34
60059;BME280;45932;50.658;3.022;2023-01-16T09:28:44;97252.19;;;7.29;77.57
60059;BME280;45932;50.658;3.022;2023-01-16T09:31:09;97207.47;;;7.12;77.36
60059;BME280;45932;50.658;3.022;2023-01-16T09:33:35;97262.72;;;7.50;77.51
60059;BME280;45932;50.658;3.022;2023-01-16T09:36:03;97220.47;;;7.35;77.71
60059;BME280;45932;50.658;3.022;2023-01-16T09:38:28;97220.09;;;7.45;77.88
60059;BME280;45932;50.658;3.022;2023-01-16T09:40:55;97197.13;;;7.29;77.49
60059;BME280;45932;50.658;3.022;2023-01-16T09:43:40;97255.13;;;7.64;77.22
60059;BME280;45932;50.658;3.022;2023-01-16T09:46:22;97258.34;;;7.71;77.59
60059;BME280;45932;50.658;3.022;2023-01-16T09:51:24;97258.53;;;7.66;77.39
60059;BME280;45932;50.658;3.022;2023-01-16T09:54:04;97263.59;;;7.71;77.44
60059;BME280;45932;50.658;3.022;2023-01-16T09:56:52;97234.44;;;7.57;77.03
60059;BME280;45932;50.658;3.022;2023-01-16T09:59:45;97246.75;;;7.77;77.21
60059;BME280;45932;50.658;3.022;2023-01-16T10:02:20;97259.94;;;7.96;77.18
60059;BME280;45932;50.658;3.022;2023-01-16T10:04:48;97270.34;;;7.97;77.29
60059;BME280;45932;50.658;3.022;2023-01-16T10:12:36;97249.34;;;7.97;77.36
60059;BME280;45932;50.658;3.022;2023-01-16T10:29:15;97291.00;;;8.05;76.41
60059;BME280;45932;50.658;3.022;2023-01-16T10:31:48;97269.72;;;7.92;76.81
60059;BME280;45932;50.658;3.022;2023-01-16T10:34:27;97287.59;;;8.03;76.60
60059;BME280;45932;50.658;3.022;2023-01-16T10:36:56;97275.34;;;8.04;76.66
60059;BME280;45932;50.658;3.022;2023-01-16T10:39:29;97239.50;;;7.82;76.53
60059;BME280;45932;50.658;3.022;2023-01-16T10:42:08;97292.38;;;8.14;76.28
60059;BME280;45932;50.658;3.022;2023-01-16T10:45:10;97273.63;;;8.02;76.47
60059;BME280;45932;50.658;3.022;2023-01-16T10:47:55;97243.75;;;8.05;76.65
60059;BME280;45932;50.658;3.022;2023-01-16T10:50:40;97238.38;;;8.08;77.06
60059;BME280;45932;50.658;3.022;2023-01-16T10:53:08;97247.28;;;8.25;77.23
60059;BME280;45932;50.658;3.022;2023-01-16T10:55:35;97244.56;;;8.07;76.54
60059;BME280;45932;50.658;3.022;2023-01-16T10:58:38;97273.31;;;8.29;76.78
60059;BME280;45932;50.658;3.022;2023-01-16T11:01:05;97278.59;;;8.29;76.60
60059;BME280;45932;50.658;3.022;2023-01-16T11:03:40;97266.25;;;8.31;76.71
60059;BME280;45932;50.658;3.022;2023-01-16T11:08:41;97218.44;;;8.04;76.64
60059;BME280;45932;50.658;3.022;2023-01-16T11:11:10;97261.19;;;8.27;76.75
60059;BME280;45932;50.658;3.022;2023-01-16T11:13:56;97224.91;;;8.16;76.64
60059;BME280;45932;50.658;3.022;2023-01-16T11:16:40;97238.06;;;8.35;77.26
60059;BME280;45932;50.658;3.022;2023-01-16T11:19:25;97238.00;;;8.37;77.11
60059;BME280;45932;50.658;3.022;2023-01-16T11:22:01;97209.75;;;8.23;76.92
60059;BME280;45932;50.658;3.022;2023-01-16T11:24:34;97219.91;;;8.30;77.07
60059;BME280;45932;50.658;3.022;2023-01-16T11:27:00;97205.47;;;8.20;76.92
60059;BME280;45932;50.658;3.022;2023-01-16T11:29:38;97204.41;;;8.24;77.28
60059;BME280;45932;50.658;3.022;2023-01-16T11:32:11;97175.88;;;8.16;77.61
60059;BME280;45932;50.658;3.022;2023-01-16T11:34:43;97214.75;;;8.48;77.84
60059;BME280;45932;50.658;3.022;2023-01-16T11:37:12;97214.00;;;8.44;77.70
60059;BME280;45932;50.658;3.022;2023-01-16T11:39:39;97235.75;;;8.48;77.14
60059;BME280;45932;50.658;3.022;2023-01-16T11:42:09;97189.66;;;8.22;77.31
60059;BME280;45932;50.658;3.022;2023-01-16T11:44:57;97179.56;;;8.12;77.08
60059;BME280;45932;50.658;3.022;2023-01-16T11:47:44;97249.00;;;8.45;76.86
60059;BME280;45932;50.658;3.022;2023-01-16T11:50:35;97249.69;;;8.50;77.26
60059;BME280;45932;50.658;3.022;2023-01-16T11:53:01;97203.72;;;8.21;76.83
60059;BME280;45932;50.658;3.022;2023-01-16T11:58:49;97276.56;;;8.36;76.58
60059;BME280;45932;50.658;3.022;2023-01-16T12:01:31;97199.22;;;8.04;76.62
60059;BME280;45932;50.658;3.022;2023-01-16T12:04:24;97248.19;;;8.24;76.50
60059;BME280;45932;50.658;3.022;2023-01-16T12:15:16;97236.75;;;8.25;76.79
60059;BME280;45932;50.658;3.022;2023-01-16T12:26:24;97297.69;;;8.33;76.50
60059;BME280;45932;50.658;3.022;2023-01-16T12:29:10;97303.00;;;8.31;76.45
60059;BME280;45932;50.658;3.022;2023-01-16T12:45:54;97266.28;;;8.11;76.69
60059;BME280;45932;50.658;3.022;2023-01-16T12:59:33;97306.94;;;8.21;77.00
60059;BME280;45932;50.658;3.022;2023-01-16T13:02:18;97307.84;;;8.20;77.05
60059;BME280;45932;50.658;3.022;2023-01-16T13:04:56;97315.09;;;8.15;76.50
60059;BME280;45932;50.658;3.022;2023-01-16T13:07:25;97336.25;;;8.12;76.61
60059;BME280;45932;50.658;3.022;2023-01-16T13:10:13;97334.25;;;8.17;76.94
60059;BME280;45932;50.658;3.022;2023-01-16T13:13:02;97324.03;;;8.11;76.70
60059;BME280;45932;50.658;3.022;2023-01-16T13:20:58;97306.09;;;8.00;77.16
60059;BME280;45932;50.658;3.022;2023-01-16T13:23:26;97336.81;;;8.18;76.79
60059;BME280;45932;50.658;3.022;2023-01-16T13:25:58;97296.00;;;7.91;76.92
60059;BME280;45932;50.658;3.022;2023-01-16T13:31:18;97345.13;;;8.08;76.60
60059;BME280;45932;50.658;3.022;2023-01-16T13:33:46;97328.47;;;7.88;76.43
60059;BME280;45932;50.658;3.022;2023-01-16T13:36:48;97393.59;;;8.21;76.62
60059;BME280;45932;50.658;3.022;2023-01-16T13:39:48;97418.13;;;8.20;76.63
60059;BME280;45932;50.658;3.022;2023-01-16T13:42:19;97414.84;;;8.15;76.38
60059;BME280;45932;50.658;3.022;2023-01-16T13:44:50;97405.66;;;8.05;76.58
60059;BME280;45932;50.658;3.022;2023-01-16T13:47:39;97384.38;;;7.90;76.67
60059;BME280;45932;50.658;3.022;2023-01-16T13:50:18;97435.84;;;8.15;76.54
60059;BME280;45932;50.658;3.022;2023-01-16T13:52:46;97435.56;;;8.00;76.52
60059;BME280;45932;50.658;3.022;2023-01-16T13:55:27;97460.06;;;8.01;76.23
60059;BME280;45932;50.658;3.022;2023-01-16T13:57:56;97411.03;;;7.79;76.42
60059;BME280;45932;50.658;3.022;2023-01-16T14:00:23;97485.19;;;8.07;76.29
60059;BME280;45932;50.658;3.022;2023-01-16T14:03:24;97499.97;;;8.09;76.33
60059;BME280;45932;50.658;3.022;2023-01-16T14:05:53;97500.94;;;8.07;76.52
60059;BME280;45932;50.658;3.022;2023-01-16T14:13:35;97542.16;;;7.82;75.57
60059;BME280;45932;50.658;3.022;2023-01-16T14:21:42;97590.81;;;7.90;75.58
60059;BME280;45932;50.658;3.022;2023-01-16T14:24:28;97591.50;;;7.73;75.77
60059;BME280;45932;50.658;3.022;2023-01-16T14:29:22;97614.44;;;7.66;75.56
60059;BME280;45932;50.658;3.022;2023-01-16T14:32:05;97622.78;;;7.77;76.01
60059;BME280;45932;50.658;3.022;2023-01-16T14:34:37;97642.94;;;7.77;75.76
60059;BME280;45932;50.658;3.022;2023-01-16T14:37:19;97649.22;;;7.73;75.64
60059;BME280;45932;50.658;3.022;2023-01-16T14:39:54;97651.78;;;7.74;76.05
60059;BME280;45932;50.658;3.022;2023-01-16T14:42:26;97665.28;;;7.63;75.97
60059;BME280;45932;50.658;3.022;2023-01-16T14:45:34;97693.91;;;7.69;75.21
60059;BME280;45932;50.658;3.022;2023-01-16T14:54:09;97684.75;;;7.56;75.78
60059;BME280;45932;50.658;3.022;2023-01-16T14:57:02;97724.78;;;7.61;75.54
60059;BME280;45932;50.658;3.022;2023-01-16T14:59:36;97687.13;;;7.39;75.39
60059;BME280;45932;50.658;3.022;2023-01-16T15:02:12;97714.28;;;7.61;75.67
60059;BME280;45932;50.658;3.022;2023-01-16T15:07:23;97730.03;;;7.61;75.98
60059;BME280;45932;50.658;3.022;2023-01-16T15:09:50;97707.88;;;7.45;76.05
60059;BME280;45932;50.658;3.022;2023-01-16T15:12:17;97742.25;;;7.62;75.69
60059;BME280;45932;50.658;3.022;2023-01-16T15:14:58;97719.28;;;7.44;75.96
60059;BME280;45932;50.658;3.022;2023-01-16T15:17:29;97725.34;;;7.46;76.32
60059;BME280;45932;50.658;3.022;2023-01-16T15:20:26;97760.97;;;7.51;75.26
60059;BME280;45932;50.658;3.022;2023-01-16T15:26:07;97782.56;;;7.60;75.80
60059;BME280;45932;50.658;3.022;2023-01-16T15:31:15;97789.69;;;7.56;75.63
60059;BME280;45932;50.658;3.022;2023-01-16T15:33:41;97760.56;;;7.37;75.70
60059;BME280;45932;50.658;3.022;2023-01-16T15:36:18;97798.25;;;7.61;75.53
60059;BME280;45932;50.658;3.022;2023-01-16T15:39:19;97795.63;;;7.61;76.00
60059;BME280;45932;50.658;3.022;2023-01-16T15:41:52;97771.59;;;7.48;75.99
60059;BME280;45932;50.658;3.022;2023-01-16T15:44:39;97813.09;;;7.62;75.77
60059;BME280;45932;50.658;3.022;2023-01-16T15:50:32;97824.47;;;7.61;75.68
60059;BME280;45932;50.658;3.022;2023-01-16T15:53:02;97827.50;;;7.49;75.54
60059;BME280;45932;50.658;3.022;2023-01-16T15:55:38;97830.41;;;7.40;75.08
60059;BME280;45932;50.658;3.022;2023-01-16T15:58:05;97851.38;;;7.41;75.13
60059;BME280;45932;50.658;3.022;2023-01-16T16:00:37;97888.41;;;7.59;74.97